sensor_id;sensor_type;location;lat;lon;timestamp;P1;durP1;ratioP1;P2;durP2;ratioP2
62994;SDS011;49086;52.300;4.850;2022-08-19T00:00:53;10.25;;;6.63;;
62994;SDS011;49086;52.300;4.850;2022-08-19T00:03:20;12.50;;;6.82;;
62994;SDS011;49086;52.300;4.850;2022-08-19T00:05:58;8.10;;;6.22;;
62994;SDS011;49086;52.300;4.850;2022-08-19T00:08:47;11.15;;;6.63;;
62994;SDS011;49086;52.300;4.850;2022-08-19T00:11:16;9.23;;;6.63;;
62994;SDS011;49086;52.300;4.850;2022-08-19T00:14:09;10.32;;;7.28;;
62994;SDS011;49086;52.300;4.850;2022-08-19T00:16:42;10.68;;;7.10;;
62994;SDS011;49086;52.300;4.850;2022-08-19T00:19:30;11.60;;;8.45;;
62994;SDS011;49086;52.300;4.850;2022-08-19T00:22:34;15.35;;;10.45;;
62994;SDS011;49086;52.300;4.850;2022-08-19T00:25:05;16.45;;;11.38;;
62994;SDS011;49086;52.300;4.850;2022-08-19T00:27:49;17.38;;;12.02;;
62994;SDS011;49086;52.300;4.850;2022-08-19T00:30:15;21.08;;;12.90;;
62994;SDS011;49086;52.300;4.850;2022-08-19T00:33:02;18.10;;;11.55;;
62994;SDS011;49086;52.300;4.850;2022-08-19T00:35:56;14.68;;;11.05;;
62994;SDS011;49086;52.300;4.850;2022-08-19T00:38:26;13.85;;;10.40;;
62994;SDS011;49086;52.300;4.850;2022-08-19T00:40:52;18.88;;;11.07;;
62994;SDS011;49086;52.300;4.850;2022-08-19T00:43:43;15.88;;;10.63;;
62994;SDS011;49086;52.300;4.850;2022-08-19T00:46:14;17.73;;;11.00;;
62994;SDS011;49086;52.300;4.850;2022-08-19T00:52:35;12.48;;;9.43;;
62994;SDS011;49086;52.300;4.850;2022-08-19T00:55:18;15.50;;;10.15;;
62994;SDS011;49086;52.300;4.850;2022-08-19T00:58:32;14.38;;;10.10;;
62994;SDS011;49086;52.300;4.850;2022-08-19T01:01:14;15.55;;;10.23;;
62994;SDS011;49086;52.300;4.850;2022-08-19T01:04:07;14.80;;;10.80;;
62994;SDS011;49086;52.300;4.850;2022-08-19T01:06:57;15.63;;;10.63;;
62994;SDS011;49086;52.300;4.850;2022-08-19T01:09:29;14.50;;;10.73;;
62994;SDS011;49086;52.300;4.850;2022-08-19T01:12:01;14.07;;;9.70;;
62994;SDS011;49086;52.300;4.850;2022-08-19T01:14:57;12.25;;;9.50;;
62994;SDS011;49086;52.300;4.850;2022-08-19T01:18:04;15.25;;;10.98;;
62994;SDS011;49086;52.300;4.850;2022-08-19T01:20:43;15.10;;;10.25;;
62994;SDS011;49086;52.300;4.850;2022-08-19T01:23:50;15.02;;;10.32;;
62994;SDS011;49086;52.300;4.850;2022-08-19T01:26:26;13.85;;;10.18;;
62994;SDS011;49086;52.300;4.850;2022-08-19T01:29:07;17.80;;;10.30;;
62994;SDS011;49086;52.300;4.850;2022-08-19T01:31:48;15.15;;;9.95;;
62994;SDS011;49086;52.300;4.850;2022-08-19T01:34:19;14.25;;;10.75;;
62994;SDS011;49086;52.300;4.850;2022-08-19T01:36:47;14.90;;;10.55;;
62994;SDS011;49086;52.300;4.850;2022-08-19T01:39:17;16.00;;;10.82;;
62994;SDS011;49086;52.300;4.850;2022-08-19T01:41:56;13.88;;;10.68;;
62994;SDS011;49086;52.300;4.850;2022-08-19T01:44:33;16.40;;;10.57;;
62994;SDS011;49086;52.300;4.850;2022-08-19T01:47:25;16.30;;;10.65;;
62994;SDS011;49086;52.300;4.850;2022-08-19T01:49:51;15.52;;;10.73;;
62994;SDS011;49086;52.300;4.850;2022-08-19T01:52:17;14.38;;;10.40;;
62994;SDS011;49086;52.300;4.850;2022-08-19T01:54:44;14.57;;;10.13;;
62994;SDS011;49086;52.300;4.850;2022-08-19T01:57:14;18.88;;;10.77;;
62994;SDS011;49086;52.300;4.850;2022-08-19T01:59:41;14.98;;;10.60;;
62994;SDS011;49086;52.300;4.850;2022-08-19T02:02:16;13.77;;;10.57;;
62994;SDS011;49086;52.300;4.850;2022-08-19T02:04:44;20.80;;;11.43;;
62994;SDS011;49086;52.300;4.850;2022-08-19T02:07:12;20.40;;;10.65;;
62994;SDS011;49086;52.300;4.850;2022-08-19T02:09:48;18.48;;;10.48;;
62994;SDS011;49086;52.300;4.850;2022-08-19T02:12:36;16.20;;;11.07;;
62994;SDS011;49086;52.300;4.850;2022-08-19T02:15:09;17.55;;;10.85;;
62994;SDS011;49086;52.300;4.850;2022-08-19T02:17:55;14.15;;;10.82;;
62994;SDS011;49086;52.300;4.850;2022-08-19T02:20:42;15.05;;;10.38;;
62994;SDS011;49086;52.300;4.850;2022-08-19T02:23:25;17.10;;;10.88;;
62994;SDS011;49086;52.300;4.850;2022-08-19T02:26:07;15.20;;;10.45;;
62994;SDS011;49086;52.300;4.850;2022-08-19T02:28:53;16.42;;;10.30;;
62994;SDS011;49086;52.300;4.850;2022-08-19T02:31:44;15.00;;;10.55;;
62994;SDS011;49086;52.300;4.850;2022-08-19T02:34:13;15.80;;;10.93;;
62994;SDS011;49086;52.300;4.850;2022-08-19T02:36:49;17.65;;;9.90;;
62994;SDS011;49086;52.300;4.850;2022-08-19T02:40:00;13.63;;;9.77;;
62994;SDS011;49086;52.300;4.850;2022-08-19T02:42:26;13.77;;;9.73;;
62994;SDS011;49086;52.300;4.850;2022-08-19T02:45:07;14.13;;;10.68;;
62994;SDS011;49086;52.300;4.850;2022-08-19T02:47:42;15.80;;;9.98;;
62994;SDS011;49086;52.300;4.850;2022-08-19T02:50:33;13.55;;;9.75;;
62994;SDS011;49086;52.300;4.850;2022-08-19T02:53:26;15.02;;;9.82;;
62994;SDS011;49086;52.300;4.850;2022-08-19T02:56:15;15.63;;;9.90;;
62994;SDS011;49086;52.300;4.850;2022-08-19T02:59:22;12.15;;;9.68;;
62994;SDS011;49086;52.300;4.850;2022-08-19T03:02:25;12.82;;;9.40;;
62994;SDS011;49086;52.300;4.850;2022-08-19T03:05:24;14.38;;;9.68;;
62994;SDS011;49086;52.300;4.850;2022-08-19T03:07:52;14.13;;;10.30;;
62994;SDS011;49086;52.300;4.850;2022-08-19T03:10:44;14.30;;;9.02;;
62994;SDS011;49086;52.300;4.850;2022-08-19T03:13:13;14.43;;;10.10;;
62994;SDS011;49086;52.300;4.850;2022-08-19T03:16:04;13.10;;;9.38;;
62994;SDS011;49086;52.300;4.850;2022-08-19T03:18:47;14.65;;;10.07;;
62994;SDS011;49086;52.300;4.850;2022-08-19T03:22:03;14.55;;;9.98;;
62994;SDS011;49086;52.300;4.850;2022-08-19T03:24:38;16.50;;;10.40;;
62994;SDS011;49086;52.300;4.850;2022-08-19T03:27:10;16.15;;;9.95;;
62994;SDS011;49086;52.300;4.850;2022-08-19T03:30:25;17.13;;;10.98;;
62994;SDS011;49086;52.300;4.850;2022-08-19T03:32:52;16.65;;;10.73;;
62994;SDS011;49086;52.300;4.850;2022-08-19T03:35:27;15.18;;;9.95;;
62994;SDS011;49086;52.300;4.850;2022-08-19T03:38:00;15.35;;;10.32;;
62994;SDS011;49086;52.300;4.850;2022-08-19T03:40:26;14.07;;;10.52;;
62994;SDS011;49086;52.300;4.850;2022-08-19T03:42:53;17.20;;;10.98;;
62994;SDS011;49086;52.300;4.850;2022-08-19T03:45:19;13.52;;;9.90;;
62994;SDS011;49086;52.300;4.850;2022-08-19T03:47:45;16.83;;;10.98;;
62994;SDS011;49086;52.300;4.850;2022-08-19T03:50:14;17.08;;;10.93;;
62994;SDS011;49086;52.300;4.850;2022-08-19T03:52:55;14.68;;;10.20;;
62994;SDS011;49086;52.300;4.850;2022-08-19T03:55:21;19.70;;;10.30;;
62994;SDS011;49086;52.300;4.850;2022-08-19T03:58:23;16.17;;;10.50;;
62994;SDS011;49086;52.300;4.850;2022-08-19T04:01:02;15.15;;;10.35;;
62994;SDS011;49086;52.300;4.850;2022-08-19T04:03:53;15.45;;;10.70;;
62994;SDS011;49086;52.300;4.850;2022-08-19T04:06:25;15.20;;;10.43;;
62994;SDS011;49086;52.300;4.850;2022-08-19T04:08:57;15.15;;;10.27;;
62994;SDS011;49086;52.300;4.850;2022-08-19T04:11:25;15.30;;;10.40;;
62994;SDS011;49086;52.300;4.850;2022-08-19T04:14:42;16.23;;;10.52;;
62994;SDS011;49086;52.300;4.850;2022-08-19T04:17:48;17.00;;;10.32;;
62994;SDS011;49086;52.300;4.850;2022-08-19T04:20:14;14.95;;;11.63;;
62994;SDS011;49086;52.300;4.850;2022-08-19T04:22:46;14.77;;;11.35;;
62994;SDS011;49086;52.300;4.850;2022-08-19T04:25:45;16.88;;;10.68;;
62994;SDS011;49086;52.300;4.850;2022-08-19T04:28:15;18.60;;;12.70;;
62994;SDS011;49086;52.300;4.850;2022-08-19T04:31:03;18.55;;;11.98;;
62994;SDS011;49086;52.300;4.850;2022-08-19T04:33:43;15.25;;;10.88;;
62994;SDS011;49086;52.300;4.850;2022-08-19T04:36:26;18.77;;;12.23;;
62994;SDS011;49086;52.300;4.850;2022-08-19T04:38:56;18.92;;;12.57;;
62994;SDS011;49086;52.300;4.850;2022-08-19T04:41:26;21.08;;;12.48;;
62994;SDS011;49086;52.300;4.850;2022-08-19T04:44:16;18.88;;;12.57;;
62994;SDS011;49086;52.300;4.850;2022-08-19T04:47:13;21.75;;;13.35;;
62994;SDS011;49086;52.300;4.850;2022-08-19T04:49:47;21.73;;;13.43;;
62994;SDS011;49086;52.300;4.850;2022-08-19T04:52:17;22.17;;;15.00;;
62994;SDS011;49086;52.300;4.850;2022-08-19T04:54:47;26.92;;;14.70;;
62994;SDS011;49086;52.300;4.850;2022-08-19T04:57:15;25.98;;;16.52;;
62994;SDS011;49086;52.300;4.850;2022-08-19T05:00:07;28.80;;;16.42;;
62994;SDS011;49086;52.300;4.850;2022-08-19T05:02:40;25.05;;;15.68;;
62994;SDS011;49086;52.300;4.850;2022-08-19T05:05:12;34.45;;;17.05;;
62994;SDS011;49086;52.300;4.850;2022-08-19T05:07:39;26.88;;;16.50;;
62994;SDS011;49086;52.300;4.850;2022-08-19T05:10:07;27.73;;;15.98;;
62994;SDS011;49086;52.300;4.850;2022-08-19T05:12:57;30.38;;;17.55;;
62994;SDS011;49086;52.300;4.850;2022-08-19T05:15:22;31.42;;;18.23;;
62994;SDS011;49086;52.300;4.850;2022-08-19T05:18:06;33.22;;;17.52;;
62994;SDS011;49086;52.300;4.850;2022-08-19T05:20:56;28.40;;;17.52;;
62994;SDS011;49086;52.300;4.850;2022-08-19T05:23:45;29.30;;;17.85;;
62994;SDS011;49086;52.300;4.850;2022-08-19T05:26:16;31.77;;;19.25;;
62994;SDS011;49086;52.300;4.850;2022-08-19T05:28:42;35.38;;;18.88;;
62994;SDS011;49086;52.300;4.850;2022-08-19T05:31:28;33.97;;;19.00;;
62994;SDS011;49086;52.300;4.850;2022-08-19T05:33:54;38.65;;;19.25;;
62994;SDS011;49086;52.300;4.850;2022-08-19T05:36:36;36.38;;;20.08;;
62994;SDS011;49086;52.300;4.850;2022-08-19T05:39:18;37.65;;;21.30;;
62994;SDS011;49086;52.300;4.850;2022-08-19T05:42:27;41.20;;;21.25;;
62994;SDS011;49086;52.300;4.850;2022-08-19T05:45:12;43.08;;;22.17;;
62994;SDS011;49086;52.300;4.850;2022-08-19T05:47:39;38.88;;;21.73;;
62994;SDS011;49086;52.300;4.850;2022-08-19T05:50:15;46.25;;;22.67;;
62994;SDS011;49086;52.300;4.850;2022-08-19T05:52:46;39.78;;;21.63;;
62994;SDS011;49086;52.300;4.850;2022-08-19T05:55:14;37.60;;;21.65;;
62994;SDS011;49086;52.300;4.850;2022-08-19T05:57:46;41.45;;;21.13;;
62994;SDS011;49086;52.300;4.850;2022-08-19T06:00:17;42.50;;;21.95;;
62994;SDS011;49086;52.300;4.850;2022-08-19T06:02:43;38.22;;;21.48;;
62994;SDS011;49086;52.300;4.850;2022-08-19T06:05:10;45.70;;;21.73;;
62994;SDS011;49086;52.300;4.850;2022-08-19T06:07:37;42.08;;;22.58;;
62994;SDS011;49086;52.300;4.850;2022-08-19T06:10:23;40.95;;;22.45;;
62994;SDS011;49086;52.300;4.850;2022-08-19T06:12:54;46.88;;;22.17;;
62994;SDS011;49086;52.300;4.850;2022-08-19T06:15:25;48.20;;;23.60;;
62994;SDS011;49086;52.300;4.850;2022-08-19T06:18:11;47.83;;;22.42;;
62994;SDS011;49086;52.300;4.850;2022-08-19T06:20:53;52.60;;;24.13;;
62994;SDS011;49086;52.300;4.850;2022-08-19T06:23:25;38.15;;;19.02;;
62994;SDS011;49086;52.300;4.850;2022-08-19T06:26:17;43.67;;;21.77;;
62994;SDS011;49086;52.300;4.850;2022-08-19T06:28:48;33.57;;;15.93;;
62994;SDS011;49086;52.300;4.850;2022-08-19T06:31:17;31.60;;;17.05;;
62994;SDS011;49086;52.300;4.850;2022-08-19T06:34:11;34.42;;;18.40;;
62994;SDS011;49086;52.300;4.850;2022-08-19T06:36:40;30.58;;;15.77;;
62994;SDS011;49086;52.300;4.850;2022-08-19T06:39:12;39.35;;;18.95;;
62994;SDS011;49086;52.300;4.850;2022-08-19T06:42:07;60.83;;;24.85;;
62994;SDS011;49086;52.300;4.850;2022-08-19T06:44:39;42.58;;;20.23;;
62994;SDS011;49086;52.300;4.850;2022-08-19T06:47:07;49.50;;;22.67;;
62994;SDS011;49086;52.300;4.850;2022-08-19T06:49:35;62.70;;;27.58;;
62994;SDS011;49086;52.300;4.850;2022-08-19T06:52:01;45.90;;;22.20;;
62994;SDS011;49086;52.300;4.850;2022-08-19T06:54:32;50.80;;;22.48;;
62994;SDS011;49086;52.300;4.850;2022-08-19T06:57:20;45.55;;;21.48;;
62994;SDS011;49086;52.300;4.850;2022-08-19T06:59:50;51.28;;;23.88;;
62994;SDS011;49086;52.300;4.850;2022-08-19T07:02:18;53.50;;;24.33;;
62994;SDS011;49086;52.300;4.850;2022-08-19T07:04:49;52.85;;;25.30;;
62994;SDS011;49086;52.300;4.850;2022-08-19T07:07:16;52.10;;;25.20;;
62994;SDS011;49086;52.300;4.850;2022-08-19T07:10:03;56.13;;;24.50;;
62994;SDS011;49086;52.300;4.850;2022-08-19T07:12:29;55.20;;;24.52;;
62994;SDS011;49086;52.300;4.850;2022-08-19T07:14:59;50.25;;;23.33;;
62994;SDS011;49086;52.300;4.850;2022-08-19T07:18:08;50.35;;;25.30;;
62994;SDS011;49086;52.300;4.850;2022-08-19T07:21:10;43.03;;;21.98;;
62994;SDS011;49086;52.300;4.850;2022-08-19T07:23:50;51.30;;;24.23;;
62994;SDS011;49086;52.300;4.850;2022-08-19T07:26:40;44.90;;;21.67;;
62994;SDS011;49086;52.300;4.850;2022-08-19T07:29:16;45.22;;;24.00;;
62994;SDS011;49086;52.300;4.850;2022-08-19T07:32:02;46.22;;;22.30;;
62994;SDS011;49086;52.300;4.850;2022-08-19T07:34:54;43.65;;;21.77;;
62994;SDS011;49086;52.300;4.850;2022-08-19T07:37:34;40.00;;;21.13;;
62994;SDS011;49086;52.300;4.850;2022-08-19T07:40:02;45.92;;;20.85;;
62994;SDS011;49086;52.300;4.850;2022-08-19T07:42:38;38.00;;;19.88;;
62994;SDS011;49086;52.300;4.850;2022-08-19T07:45:25;40.85;;;20.77;;
62994;SDS011;49086;52.300;4.850;2022-08-19T07:47:57;38.20;;;20.08;;
62994;SDS011;49086;52.300;4.850;2022-08-19T07:50:37;37.83;;;18.65;;
62994;SDS011;49086;52.300;4.850;2022-08-19T07:53:03;39.42;;;19.50;;
62994;SDS011;49086;52.300;4.850;2022-08-19T07:56:11;35.83;;;18.42;;
62994;SDS011;49086;52.300;4.850;2022-08-19T07:59:07;33.00;;;16.23;;
62994;SDS011;49086;52.300;4.850;2022-08-19T08:01:37;29.15;;;16.63;;
62994;SDS011;49086;52.300;4.850;2022-08-19T08:04:13;27.98;;;16.65;;
62994;SDS011;49086;52.300;4.850;2022-08-19T08:06:59;35.33;;;16.00;;
62994;SDS011;49086;52.300;4.850;2022-08-19T08:10:24;25.45;;;15.13;;
62994;SDS011;49086;52.300;4.850;2022-08-19T08:13:03;27.27;;;14.63;;
62994;SDS011;49086;52.300;4.850;2022-08-19T08:15:51;27.50;;;15.18;;
62994;SDS011;49086;52.300;4.850;2022-08-19T08:18:19;28.23;;;15.18;;
62994;SDS011;49086;52.300;4.850;2022-08-19T08:21:09;29.85;;;14.85;;
62994;SDS011;49086;52.300;4.850;2022-08-19T08:24:00;27.02;;;14.45;;
62994;SDS011;49086;52.300;4.850;2022-08-19T08:26:34;24.80;;;13.65;;
62994;SDS011;49086;52.300;4.850;2022-08-19T08:29:05;20.95;;;12.25;;
62994;SDS011;49086;52.300;4.850;2022-08-19T08:31:34;25.92;;;11.82;;
62994;SDS011;49086;52.300;4.850;2022-08-19T08:34:04;19.05;;;12.10;;
62994;SDS011;49086;52.300;4.850;2022-08-19T08:36:30;23.25;;;12.07;;
62994;SDS011;49086;52.300;4.850;2022-08-19T08:39:00;20.30;;;11.00;;
62994;SDS011;49086;52.300;4.850;2022-08-19T08:41:44;23.75;;;11.93;;
62994;SDS011;49086;52.300;4.850;2022-08-19T08:44:22;17.90;;;10.77;;
62994;SDS011;49086;52.300;4.850;2022-08-19T08:47:48;20.17;;;10.93;;
62994;SDS011;49086;52.300;4.850;2022-08-19T08:50:42;18.05;;;10.68;;
62994;SDS011;49086;52.300;4.850;2022-08-19T08:53:16;16.33;;;9.48;;
62994;SDS011;49086;52.300;4.850;2022-08-19T08:56:21;15.35;;;9.15;;
62994;SDS011;49086;52.300;4.850;2022-08-19T09:01:23;11.38;;;8.05;;
62994;SDS011;49086;52.300;4.850;2022-08-19T09:03:52;14.38;;;7.60;;
62994;SDS011;49086;52.300;4.850;2022-08-19T09:06:51;14.70;;;7.75;;
62994;SDS011;49086;52.300;4.850;2022-08-19T09:09:38;13.60;;;6.90;;
62994;SDS011;49086;52.300;4.850;2022-08-19T09:12:39;12.30;;;6.72;;
62994;SDS011;49086;52.300;4.850;2022-08-19T09:15:36;11.70;;;6.45;;
62994;SDS011;49086;52.300;4.850;2022-08-19T09:18:49;10.45;;;6.78;;
62994;SDS011;49086;52.300;4.850;2022-08-19T09:21:24;16.70;;;6.80;;
62994;SDS011;49086;52.300;4.850;2022-08-19T09:24:15;13.25;;;6.63;;
62994;SDS011;49086;52.300;4.850;2022-08-19T09:27:09;16.38;;;7.30;;
62994;SDS011;49086;52.300;4.850;2022-08-19T09:29:43;12.75;;;6.57;;
62994;SDS011;49086;52.300;4.850;2022-08-19T09:32:17;11.02;;;5.57;;
62994;SDS011;49086;52.300;4.850;2022-08-19T09:34:59;13.55;;;6.25;;
62994;SDS011;49086;52.300;4.850;2022-08-19T09:37:57;10.60;;;6.65;;
62994;SDS011;49086;52.300;4.850;2022-08-19T09:40:33;10.57;;;6.38;;
62994;SDS011;49086;52.300;4.850;2022-08-19T09:43:03;12.60;;;7.10;;
62994;SDS011;49086;52.300;4.850;2022-08-19T09:45:30;12.32;;;5.93;;
62994;SDS011;49086;52.300;4.850;2022-08-19T09:47:57;14.43;;;6.75;;
62994;SDS011;49086;52.300;4.850;2022-08-19T09:50:51;14.45;;;6.85;;
62994;SDS011;49086;52.300;4.850;2022-08-19T09:53:39;10.52;;;6.00;;
62994;SDS011;49086;52.300;4.850;2022-08-19T09:56:05;9.65;;;6.00;;
62994;SDS011;49086;52.300;4.850;2022-08-19T09:58:54;12.38;;;5.97;;
62994;SDS011;49086;52.300;4.850;2022-08-19T10:01:32;9.88;;;5.57;;
62994;SDS011;49086;52.300;4.850;2022-08-19T10:04:08;10.98;;;6.25;;
62994;SDS011;49086;52.300;4.850;2022-08-19T10:06:40;11.00;;;6.30;;
62994;SDS011;49086;52.300;4.850;2022-08-19T10:09:27;16.10;;;6.22;;
62994;SDS011;49086;52.300;4.850;2022-08-19T10:11:58;10.70;;;6.03;;
62994;SDS011;49086;52.300;4.850;2022-08-19T10:14:27;10.43;;;6.28;;
62994;SDS011;49086;52.300;4.850;2022-08-19T10:17:22;12.57;;;5.88;;
62994;SDS011;49086;52.300;4.850;2022-08-19T10:20:11;12.55;;;6.32;;
62994;SDS011;49086;52.300;4.850;2022-08-19T10:22:37;12.82;;;6.72;;
62994;SDS011;49086;52.300;4.850;2022-08-19T10:25:07;10.25;;;6.22;;
62994;SDS011;49086;52.300;4.850;2022-08-19T10:27:33;10.23;;;5.97;;
62994;SDS011;49086;52.300;4.850;2022-08-19T10:30:00;10.88;;;6.50;;
62994;SDS011;49086;52.300;4.850;2022-08-19T10:32:28;12.93;;;5.43;;
62994;SDS011;49086;52.300;4.850;2022-08-19T10:35:06;13.20;;;5.72;;
62994;SDS011;49086;52.300;4.850;2022-08-19T10:37:39;10.85;;;5.90;;
62994;SDS011;49086;52.300;4.850;2022-08-19T10:40:12;18.25;;;6.32;;
62994;SDS011;49086;52.300;4.850;2022-08-19T10:42:38;8.73;;;5.20;;
62994;SDS011;49086;52.300;4.850;2022-08-19T10:45:51;12.05;;;5.85;;
62994;SDS011;49086;52.300;4.850;2022-08-19T10:48:39;10.55;;;4.93;;
62994;SDS011;49086;52.300;4.850;2022-08-19T10:51:09;7.63;;;4.05;;
62994;SDS011;49086;52.300;4.850;2022-08-19T10:53:54;5.88;;;3.97;;
62994;SDS011;49086;52.300;4.850;2022-08-19T10:56:49;8.73;;;3.80;;
62994;SDS011;49086;52.300;4.850;2022-08-19T10:59:39;8.48;;;4.97;;
62994;SDS011;49086;52.300;4.850;2022-08-19T11:02:07;10.15;;;3.72;;
62994;SDS011;49086;52.300;4.850;2022-08-19T11:04:41;8.43;;;3.70;;
62994;SDS011;49086;52.300;4.850;2022-08-19T11:07:09;7.53;;;3.70;;
62994;SDS011;49086;52.300;4.850;2022-08-19T11:10:01;6.70;;;3.40;;
62994;SDS011;49086;52.300;4.850;2022-08-19T11:12:47;9.85;;;3.85;;
62994;SDS011;49086;52.300;4.850;2022-08-19T11:15:21;7.72;;;3.85;;
62994;SDS011;49086;52.300;4.850;2022-08-19T11:17:52;10.02;;;3.97;;
62994;SDS011;49086;52.300;4.850;2022-08-19T11:23:47;7.57;;;3.42;;
62994;SDS011;49086;52.300;4.850;2022-08-19T11:26:18;7.53;;;3.92;;
62994;SDS011;49086;52.300;4.850;2022-08-19T11:29:08;9.35;;;3.72;;
62994;SDS011;49086;52.300;4.850;2022-08-19T11:32:29;9.45;;;3.50;;
62994;SDS011;49086;52.300;4.850;2022-08-19T11:35:44;9.18;;;3.72;;
62994;SDS011;49086;52.300;4.850;2022-08-19T11:38:35;6.57;;;3.70;;
62994;SDS011;49086;52.300;4.850;2022-08-19T11:41:08;7.93;;;3.67;;
62994;SDS011;49086;52.300;4.850;2022-08-19T11:43:48;6.13;;;3.42;;
62994;SDS011;49086;52.300;4.850;2022-08-19T11:49:17;6.32;;;3.03;;
62994;SDS011;49086;52.300;4.850;2022-08-19T11:51:45;7.43;;;2.97;;
62994;SDS011;49086;52.300;4.850;2022-08-19T11:55:07;7.18;;;3.25;;
62994;SDS011;49086;52.300;4.850;2022-08-19T11:57:34;6.45;;;2.85;;
62994;SDS011;49086;52.300;4.850;2022-08-19T12:00:00;3.88;;;2.53;;
62994;SDS011;49086;52.300;4.850;2022-08-19T12:03:07;3.95;;;2.50;;
62994;SDS011;49086;52.300;4.850;2022-08-19T12:05:38;5.22;;;2.88;;
62994;SDS011;49086;52.300;4.850;2022-08-19T12:08:33;4.60;;;2.40;;
62994;SDS011;49086;52.300;4.850;2022-08-19T12:11:58;7.22;;;2.83;;
62994;SDS011;49086;52.300;4.850;2022-08-19T12:14:51;5.70;;;2.53;;
62994;SDS011;49086;52.300;4.850;2022-08-19T12:17:28;5.15;;;2.17;;
62994;SDS011;49086;52.300;4.850;2022-08-19T12:20:14;4.28;;;1.98;;
62994;SDS011;49086;52.300;4.850;2022-08-19T12:23:09;4.13;;;1.83;;
62994;SDS011;49086;52.300;4.850;2022-08-19T12:25:43;7.07;;;2.13;;
62994;SDS011;49086;52.300;4.850;2022-08-19T12:28:42;5.30;;;1.80;;
62994;SDS011;49086;52.300;4.850;2022-08-19T12:33:42;3.85;;;1.58;;
62994;SDS011;49086;52.300;4.850;2022-08-19T12:36:31;3.03;;;1.55;;
62994;SDS011;49086;52.300;4.850;2022-08-19T12:38:59;6.28;;;1.77;;
62994;SDS011;49086;52.300;4.850;2022-08-19T12:41:39;4.82;;;1.85;;
62994;SDS011;49086;52.300;4.850;2022-08-19T12:44:42;4.40;;;1.90;;
62994;SDS011;49086;52.300;4.850;2022-08-19T12:47:13;4.15;;;1.55;;
62994;SDS011;49086;52.300;4.850;2022-08-19T12:49:44;4.85;;;2.15;;
62994;SDS011;49086;52.300;4.850;2022-08-19T12:52:23;5.22;;;2.13;;
62994;SDS011;49086;52.300;4.850;2022-08-19T12:54:55;3.90;;;1.52;;
62994;SDS011;49086;52.300;4.850;2022-08-19T12:57:31;4.18;;;1.77;;
62994;SDS011;49086;52.300;4.850;2022-08-19T13:03:50;6.05;;;2.40;;
62994;SDS011;49086;52.300;4.850;2022-08-19T13:06:20;3.40;;;1.55;;
62994;SDS011;49086;52.300;4.850;2022-08-19T13:09:30;3.45;;;1.40;;
62994;SDS011;49086;52.300;4.850;2022-08-19T13:12:18;5.25;;;1.45;;
62994;SDS011;49086;52.300;4.850;2022-08-19T13:14:53;3.20;;;1.63;;
62994;SDS011;49086;52.300;4.850;2022-08-19T13:17:22;4.97;;;1.40;;
62994;SDS011;49086;52.300;4.850;2022-08-19T13:19:53;3.45;;;1.65;;
62994;SDS011;49086;52.300;4.850;2022-08-19T13:22:22;4.15;;;1.45;;
62994;SDS011;49086;52.300;4.850;2022-08-19T13:24:55;4.22;;;1.55;;
62994;SDS011;49086;52.300;4.850;2022-08-19T13:27:24;4.78;;;1.70;;
62994;SDS011;49086;52.300;4.850;2022-08-19T13:29:51;4.43;;;1.77;;
62994;SDS011;49086;52.300;4.850;2022-08-19T13:35:47;5.15;;;1.73;;
62994;SDS011;49086;52.300;4.850;2022-08-19T13:38:32;3.22;;;1.60;;
62994;SDS011;49086;52.300;4.850;2022-08-19T13:41:23;4.55;;;1.60;;
62994;SDS011;49086;52.300;4.850;2022-08-19T13:43:50;4.85;;;1.65;;
62994;SDS011;49086;52.300;4.850;2022-08-19T13:46:50;5.13;;;1.90;;
62994;SDS011;49086;52.300;4.850;2022-08-19T13:49:37;5.15;;;1.70;;
62994;SDS011;49086;52.300;4.850;2022-08-19T13:52:08;3.65;;;1.88;;
62994;SDS011;49086;52.300;4.850;2022-08-19T13:54:37;4.35;;;1.65;;
62994;SDS011;49086;52.300;4.850;2022-08-19T13:57:17;3.75;;;1.70;;
62994;SDS011;49086;52.300;4.850;2022-08-19T14:00:11;3.78;;;1.50;;
62994;SDS011;49086;52.300;4.850;2022-08-19T14:02:54;3.53;;;1.70;;
62994;SDS011;49086;52.300;4.850;2022-08-19T14:05:43;4.95;;;1.70;;
62994;SDS011;49086;52.300;4.850;2022-08-19T14:08:14;3.90;;;1.70;;
62994;SDS011;49086;52.300;4.850;2022-08-19T14:11:11;2.60;;;1.50;;
62994;SDS011;49086;52.300;4.850;2022-08-19T14:13:38;4.90;;;1.67;;
62994;SDS011;49086;52.300;4.850;2022-08-19T14:16:11;3.67;;;1.77;;
62994;SDS011;49086;52.300;4.850;2022-08-19T14:21:43;3.88;;;2.20;;
62994;SDS011;49086;52.300;4.850;2022-08-19T14:27:33;7.95;;;2.00;;
62994;SDS011;49086;52.300;4.850;2022-08-19T14:30:52;3.90;;;1.75;;
62994;SDS011;49086;52.300;4.850;2022-08-19T14:33:50;2.88;;;1.70;;
62994;SDS011;49086;52.300;4.850;2022-08-19T14:36:40;4.07;;;2.05;;
62994;SDS011;49086;52.300;4.850;2022-08-19T14:42:31;2.53;;;1.60;;
62994;SDS011;49086;52.300;4.850;2022-08-19T14:45:38;2.72;;;1.73;;
62994;SDS011;49086;52.300;4.850;2022-08-19T14:48:05;4.15;;;1.73;;
62994;SDS011;49086;52.300;4.850;2022-08-19T14:51:07;3.70;;;1.75;;
62994;SDS011;49086;52.300;4.850;2022-08-19T14:53:34;3.90;;;1.60;;
62994;SDS011;49086;52.300;4.850;2022-08-19T14:56:00;3.00;;;1.40;;
62994;SDS011;49086;52.300;4.850;2022-08-19T14:58:59;4.03;;;1.65;;
62994;SDS011;49086;52.300;4.850;2022-08-19T15:01:27;3.40;;;1.67;;
62994;SDS011;49086;52.300;4.850;2022-08-19T15:04:16;3.65;;;1.67;;
62994;SDS011;49086;52.300;4.850;2022-08-19T15:07:10;3.72;;;1.90;;
62994;SDS011;49086;52.300;4.850;2022-08-19T15:10:04;4.22;;;2.03;;
62994;SDS011;49086;52.300;4.850;2022-08-19T15:13:14;3.65;;;1.77;;
62994;SDS011;49086;52.300;4.850;2022-08-19T15:16:21;4.45;;;1.88;;
62994;SDS011;49086;52.300;4.850;2022-08-19T15:19:26;2.53;;;1.45;;
62994;SDS011;49086;52.300;4.850;2022-08-19T15:21:56;4.80;;;2.83;;
62994;SDS011;49086;52.300;4.850;2022-08-19T15:24:24;4.45;;;2.20;;
62994;SDS011;49086;52.300;4.850;2022-08-19T15:27:17;5.45;;;2.33;;
62994;SDS011;49086;52.300;4.850;2022-08-19T15:29:47;3.95;;;1.52;;
62994;SDS011;49086;52.300;4.850;2022-08-19T15:32:17;3.53;;;1.45;;
62994;SDS011;49086;52.300;4.850;2022-08-19T15:34:45;2.45;;;1.42;;
62994;SDS011;49086;52.300;4.850;2022-08-19T15:37:29;4.90;;;1.48;;
62994;SDS011;49086;52.300;4.850;2022-08-19T15:40:00;13.73;;;8.30;;
62994;SDS011;49086;52.300;4.850;2022-08-19T15:42:36;7.53;;;4.80;;
62994;SDS011;49086;52.300;4.850;2022-08-19T15:45:24;4.47;;;2.45;;
62994;SDS011;49086;52.300;4.850;2022-08-19T15:48:12;4.00;;;1.90;;
62994;SDS011;49086;52.300;4.850;2022-08-19T15:50:57;5.18;;;2.20;;
62994;SDS011;49086;52.300;4.850;2022-08-19T15:53:28;4.43;;;1.88;;
62994;SDS011;49086;52.300;4.850;2022-08-19T15:55:58;5.43;;;2.22;;
62994;SDS011;49086;52.300;4.850;2022-08-19T15:58:44;5.15;;;1.90;;
62994;SDS011;49086;52.300;4.850;2022-08-19T16:01:34;4.28;;;1.85;;
62994;SDS011;49086;52.300;4.850;2022-08-19T16:04:20;3.28;;;1.70;;
62994;SDS011;49086;52.300;4.850;2022-08-19T16:07:14;3.83;;;2.25;;
62994;SDS011;49086;52.300;4.850;2022-08-19T16:09:40;5.07;;;1.70;;
62994;SDS011;49086;52.300;4.850;2022-08-19T16:12:12;3.25;;;1.40;;
62994;SDS011;49086;52.300;4.850;2022-08-19T16:14:58;2.22;;;1.38;;
62994;SDS011;49086;52.300;4.850;2022-08-19T16:17:30;2.60;;;1.65;;
62994;SDS011;49086;52.300;4.850;2022-08-19T16:19:58;3.58;;;1.30;;
62994;SDS011;49086;52.300;4.850;2022-08-19T16:23:06;3.47;;;1.73;;
62994;SDS011;49086;52.300;4.850;2022-08-19T16:25:35;5.15;;;1.85;;